Time;durP1;ratioP1;P1;durP2;ratioP2;P2;SDS_P1;SDS_P2;PMS_P1;PMS_P2;Temp;Humidity;BMP_temperature;BMP_pressure;BME280_temperature;BME280_humidity;BME280_pressure;Samples;Min_cycle;Max_cycle;Signal;HPM_P1;HPM_P2
2023/09/11 00:01:08;;;;;;;;;;;;;;;22.24;59.33;101128.75;4171258;28;20020;-65
2023/09/11 00:03:12;;;;;;;;;;;;;;;22.19;59.44;101129.47;4170408;28;20122;-65
2023/09/11 00:05:13;;;;;;;;;;;;;;;22.16;59.75;101129.97;4171321;28;20384;-65
2023/09/11 00:07:16;;;;;;;;;;;;;;;22.12;59.37;101126.88;4168738;28;20020;-65
2023/09/11 00:09:17;;;;;;;;;;;;;;;22.09;59.93;101129.28;4170397;28;20459;-66
2023/09/11 00:11:19;;;;;;;;;;;;;;;22.05;60.00;101123.47;4170992;28;20031;-64
2023/09/11 00:13:21;;;;;;;;;;;;;;;21.99;60.05;101126.31;4171057;28;20016;-65
2023/09/11 00:15:23;;;;;;;;;;;;;;;21.96;60.01;101125.75;4170654;28;20381;-66
2023/09/11 00:17:26;;;;;;;;;;;;;;;21.94;60.04;101122.41;4170839;28;20028;-65
2023/09/11 00:19:29;;;;;;;;;;;;;;;21.91;60.22;101120.16;4170551;28;20024;-65
2023/09/11 00:21:31;;;;;;;;;;;;;;;21.88;60.50;101122.53;4170612;28;20043;-64
2023/09/11 00:23:33;;;;;;;;;;;;;;;21.86;60.50;101119.19;4170298;28;20020;-65
2023/09/11 00:25:34;;;;;;;;;;;;;;;21.85;60.43;101118.38;4171068;28;20027;-65
2023/09/11 00:27:37;;;;;;;;;;;;;;;21.83;60.39;101117.75;4170611;28;19925;-65
2023/09/11 00:29:39;;;;;;;;;;;;;;;21.81;60.53;101117.16;4170716;28;20019;-65
2023/09/11 00:31:41;;;;;;;;;;;;;;;21.80;60.40;101107.25;4170849;28;20023;-65
2023/09/11 00:33:43;;;;;;;;;;;;;;;21.78;60.20;101110.22;4171480;28;20024;-64
2023/09/11 00:35:46;;;;;;;;;;;;;;;21.77;60.45;101104.97;4170463;28;19932;-65
2023/09/11 00:37:48;;;;;;;;;;;;;;;21.75;60.61;101105.22;4170097;28;20344;-67
2023/09/11 00:39:50;;;;;;;;;;;;;;;21.73;60.59;101109.31;4170803;28;20028;-66
2023/09/11 00:41:51;;;;;;;;;;;;;;;21.71;60.75;101103.22;4185219;28;20036;-64
2023/09/11 00:43:53;;;;;;;;;;;;;;;21.69;60.71;101102.63;4171005;28;19972;-64
2023/09/11 00:45:55;;;;;;;;;;;;;;;21.66;60.78;101105.84;4175872;28;20393;-65
2023/09/11 00:47:59;;;;;;;;;;;;;;;21.63;60.94;101098.94;4170160;28;20024;-66
2023/09/11 00:50:01;;;;;;;;;;;;;;;21.58;60.85;101096.91;4169007;28;20031;-66
2023/09/11 00:52:04;;;;;;;;;;;;;;;21.55;60.88;101100.16;4174805;28;20036;-66
2023/09/11 00:54:06;;;;;;;;;;;;;;;21.50;60.91;101100.00;4169570;28;20447;-66
2023/09/11 00:56:08;;;;;;;;;;;;;;;21.47;61.19;101097.72;4169230;28;20394;-67
2023/09/11 00:58:09;;;;;;;;;;;;;;;21.44;61.23;101095.44;4170799;28;20012;-66
2023/09/11 01:00:12;;;;;;;;;;;;;;;21.39;61.13;101093.44;4170629;28;20320;-66
2023/09/11 01:02:14;;;;;;;;;;;;;;;21.35;61.51;101096.91;4186060;28;20026;-63
2023/09/11 01:04:16;;;;;;;;;;;;;;;21.31;61.62;101087.47;4185638;28;20122;-67
2023/09/11 01:06:18;;;;;;;;;;;;;;;21.28;61.65;101088.78;4170384;28;20371;-66
2023/09/11 01:08:23;;;;;;;;;;;;;;;21.27;61.52;101086.28;4170267;28;20028;-66
2023/09/11 01:10:25;;;;;;;;;;;;;;;21.26;61.77;101081.88;4176198;28;20035;-65
2023/09/11 01:12:27;;;;;;;;;;;;;;;21.24;61.82;101087.59;4168674;28;20386;-64
2023/09/11 01:14:29;;;;;;;;;;;;;;;21.21;61.89;101086.16;4176122;28;20419;-65
2023/09/11 01:16:34;;;;;;;;;;;;;;;21.17;61.92;101082.22;4169166;28;19932;-65
2023/09/11 01:18:39;;;;;;;;;;;;;;;21.14;62.08;101081.88;4170163;28;20012;-64
2023/09/11 01:20:46;;;;;;;;;;;;;;;21.10;62.05;101078.78;4170004;28;20027;-66
2023/09/11 01:22:57;;;;;;;;;;;;;;;21.05;61.85;101076.75;4169829;28;20027;-66
2023/09/11 01:25:14;;;;;;;;;;;;;;;21.05;62.20;101081.41;4169806;28;20012;-66
2023/09/11 01:27:27;;;;;;;;;;;;;;;21.02;62.14;101070.91;4185195;28;20012;-65
2023/09/11 01:29:30;;;;;;;;;;;;;;;20.99;62.08;101080.44;4168408;28;20012;-66
2023/09/11 01:31:32;;;;;;;;;;;;;;;20.96;62.18;101071.84;4170134;28;20035;-65
2023/09/11 01:33:33;;;;;;;;;;;;;;;20.93;62.19;101077.81;4170137;28;20015;-65
2023/09/11 01:35:35;;;;;;;;;;;;;;;20.90;62.28;101068.13;4168697;28;20023;-66
2023/09/11 01:37:37;;;;;;;;;;;;;;;20.89;62.52;101071.94;4184890;28;19964;-67
2023/09/11 01:39:39;;;;;;;;;;;;;;;20.86;62.37;101073.28;4170443;28;20015;-65
2023/09/11 01:41:42;;;;;;;;;;;;;;;20.84;62.56;101061.69;4168968;28;20024;-65
2023/09/11 01:43:45;;;;;;;;;;;;;;;20.83;62.48;101068.25;4170420;28;20020;-66
2023/09/11 01:45:48;;;;;;;;;;;;;;;20.82;62.66;101066.59;4169200;28;20047;-66
2023/09/11 01:47:50;;;;;;;;;;;;;;;20.82;62.37;101061.09;4168539;28;20470;-65
2023/09/11 01:49:52;;;;;;;;;;;;;;;20.81;62.33;101067.66;4169888;28;20021;-65
2023/09/11 01:51:55;;;;;;;;;;;;;;;20.80;62.21;101060.50;4170759;28;20012;-65
2023/09/11 01:53:56;;;;;;;;;;;;;;;20.79;62.40;101064.31;4185094;28;20411;-64
2023/09/11 01:55:58;;;;;;;;;;;;;;;20.78;62.58;101062.63;4169814;28;20015;-66
2023/09/11 01:58:00;;;;;;;;;;;;;;;20.77;62.47;101060.97;4175661;28;19982;-66
2023/09/11 02:00:04;;;;;;;;;;;;;;;20.73;62.29;101056.19;4169057;28;20019;-65
2023/09/11 02:02:15;;;;;;;;;;;;;;;20.70;62.63;101054.75;4171594;28;20024;-65
2023/09/11 02:04:17;;;;;;;;;;;;;;;20.69;62.69;101058.59;4172390;28;20016;-65
2023/09/11 02:06:19;;;;;;;;;;;;;;;20.68;62.77;101052.25;4172157;28;20354;-65
2023/09/11 02:08:21;;;;;;;;;;;;;;;20.67;62.61;101056.09;4171685;28;20092;-66
2023/09/11 02:10:23;;;;;;;;;;;;;;;20.67;62.55;101055.22;4172186;28;20023;-65
2023/09/11 02:12:25;;;;;;;;;;;;;;;20.65;62.72;101044.47;4155047;28;19965;-64
2023/09/11 02:14:28;;;;;;;;;;;;;;;20.64;62.53;101048.31;4188588;28;20404;-65
2023/09/11 02:16:30;;;;;;;;;;;;;;;20.64;62.55;101047.44;4172159;28;20032;-65
2023/09/11 02:18:33;;;;;;;;;;;;;;;20.63;62.53;101049.34;4178316;28;20023;-67
2023/09/11 02:20:35;;;;;;;;;;;;;;;20.59;62.60;101050.06;4187003;28;20723;-67
2023/09/11 02:22:37;;;;;;;;;;;;;;;20.56;62.79;101045.88;4172793;28;20027;-65
2023/09/11 02:24:39;;;;;;;;;;;;;;;20.52;62.86;101045.50;4172909;28;20422;-66
2023/09/11 02:26:41;;;;;;;;;;;;;;;20.49;63.11;101042.41;4172344;28;20031;-67
2023/09/11 02:28:43;;;;;;;;;;;;;;;20.46;63.27;101031.91;4172982;28;20024;-66
2023/09/11 02:30:44;;;;;;;;;;;;;;;20.43;63.24;101046.09;4187046;28;20014;-66
2023/09/11 02:32:46;;;;;;;;;;;;;;;20.41;63.17;101042.75;4171903;28;20031;-66
2023/09/11 02:34:50;;;;;;;;;;;;;;;20.38;63.02;101041.31;4170499;28;20015;-65
2023/09/11 02:36:52;;;;;;;;;;;;;;;20.38;62.99;101043.22;4172294;28;20027;-64
2023/09/11 02:38:54;;;;;;;;;;;;;;;20.37;63.03;101041.56;4178629;28;20509;-65
2023/09/11 02:40:55;;;;;;;;;;;;;;;20.35;63.26;101045.34;4171226;28;20014;-65
2023/09/11 02:42:57;;;;;;;;;;;;;;;20.35;62.91;101044.53;4171651;28;20016;-65
2023/09/11 02:45:00;;;;;;;;;;;;;;;20.34;63.05;101049.19;4187586;28;20023;-66
2023/09/11 02:47:02;;;;;;;;;;;;;;;20.34;63.01;101049.19;4186625;28;20027;-65
2023/09/11 02:49:03;;;;;;;;;;;;;;;20.35;63.00;101047.28;4171762;28;20020;-65
2023/09/11 02:51:06;;;;;;;;;;;;;;;20.34;63.04;101043.69;4172017;28;19940;-66
2023/09/11 02:53:09;;;;;;;;;;;;;;;20.33;62.77;101046.69;4186577;28;20055;-66
2023/09/11 02:55:11;;;;;;;;;;;;;;;20.32;62.81;101042.25;4171915;28;19999;-66
2023/09/11 02:57:13;;;;;;;;;;;;;;;20.32;62.82;101047.75;4172561;28;20019;-65
2023/09/11 02:59:15;;;;;;;;;;;;;;;20.30;62.67;101042.47;4171588;28;19936;-66
2023/09/11 03:01:18;;;;;;;;;;;;;;;20.29;62.58;101050.94;4170842;28;20016;-65
2023/09/11 03:03:19;;;;;;;;;;;;;;;20.29;62.70;101045.47;4177600;28;20030;-66
2023/09/11 03:05:21;;;;;;;;;;;;;;;20.28;62.78;101046.53;4185474;28;20020;-65
2023/09/11 03:07:24;;;;;;;;;;;;;;;20.28;62.80;101052.00;4171681;28;20027;-64
2023/09/11 03:09:27;;;;;;;;;;;;;;;20.27;62.67;101047.63;4177417;28;20011;-65
2023/09/11 03:11:29;;;;;;;;;;;;;;;20.26;62.74;101045.94;4170557;28;20384;-65
2023/09/11 03:13:31;;;;;;;;;;;;;;;20.25;62.67;101047.84;4171520;28;20011;-65
2023/09/11 03:15:33;;;;;;;;;;;;;;;20.23;62.63;101039.00;4187421;28;20471;-65
2023/09/11 03:17:35;;;;;;;;;;;;;;;20.21;62.86;101045.81;4177365;28;20028;-66
2023/09/11 03:19:37;;;;;;;;;;;;;;;20.19;62.89;101050.66;4172000;28;20557;-66
2023/09/11 03:21:39;;;;;;;;;;;;;;;20.12;62.82;101035.16;4171290;28;20044;-66
2023/09/11 03:23:42;;;;;;;;;;;;;;;20.14;63.11;101043.13;4169832;28;20542;-66
2023/09/11 03:25:47;;;;;;;;;;;;;;;20.14;63.11;101051.38;4185976;28;20031;-64
2023/09/11 03:27:50;;;;;;;;;;;;;;;20.15;62.94;101050.31;4168787;28;20594;-65
2023/09/11 03:29:54;;;;;;;;;;;;;;;20.14;62.84;101045.88;4167386;28;20019;-66
2023/09/11 03:31:56;;;;;;;;;;;;;;;20.13;62.84;101046.97;4167896;28;20009;-66
2023/09/11 03:33:58;;;;;;;;;;;;;;;20.12;62.95;101042.53;4186175;28;20135;-66
2023/09/11 03:36:00;;;;;;;;;;;;;;;20.12;63.03;101045.28;4170648;28;20015;-67
2023/09/11 03:38:02;;;;;;;;;;;;;;;20.10;62.92;101042.78;4169990;28;20023;-66
2023/09/11 03:40:07;;;;;;;;;;;;;;;20.07;63.19;101039.69;4169319;28;20476;-64
2023/09/11 03:42:10;;;;;;;;;;;;;;;20.04;63.07;101040.97;4185586;28;20023;-65
2023/09/11 03:44:12;;;;;;;;;;;;;;;20.02;63.23;101040.38;4171698;28;20439;-66
2023/09/11 03:46:14;;;;;;;;;;;;;;;20.02;63.08;101045.84;4170880;28;20019;-66
2023/09/11 03:48:19;;;;;;;;;;;;;;;19.99;63.11;101041.66;4186013;28;20032;-66
2023/09/11 03:50:21;;;;;;;;;;;;;;;19.98;63.44;101039.16;4185803;28;20047;-66
2023/09/11 03:52:23;;;;;;;;;;;;;;;19.97;63.51;101029.28;4186333;28;20031;-66
2023/09/11 03:54:25;;;;;;;;;;;;;;;19.95;63.60;101029.50;4170952;28;20019;-65
2023/09/11 03:56:29;;;;;;;;;;;;;;;19.94;63.38;101032.47;4170276;28;20450;-65
2023/09/11 03:58:31;;;;;;;;;;;;;;;19.92;63.37;101032.72;4170029;28;20379;-66
2023/09/11 04:00:34;;;;;;;;;;;;;;;19.93;63.09;101036.28;4185954;28;19928;-66
2023/09/11 04:02:36;;;;;;;;;;;;;;;19.88;63.17;101026.00;4177052;28;20043;-66
2023/09/11 04:04:38;;;;;;;;;;;;;;;19.92;63.03;101031.84;4171694;28;20467;-66
2023/09/11 04:06:40;;;;;;;;;;;;;;;19.90;63.46;101028.53;4185988;28;20019;-66
2023/09/11 04:08:43;;;;;;;;;;;;;;;19.86;63.54;101025.41;4185515;28;20015;-66
2023/09/11 04:10:45;;;;;;;;;;;;;;;19.85;63.60;101029.22;4169993;28;20039;-66
2023/09/11 04:12:48;;;;;;;;;;;;;;;19.83;63.38;101025.88;4169997;28;20028;-66
2023/09/11 04:14:50;;;;;;;;;;;;;;;19.82;63.37;101026.94;4170012;28;20541;-67
2023/09/11 04:16:53;;;;;;;;;;;;;;;19.80;63.14;101029.91;4169533;28;20023;-66
2023/09/11 04:18:54;;;;;;;;;;;;;;;19.78;63.64;101032.06;4169421;28;20126;-66
2023/09/11 04:21:00;;;;;;;;;;;;;;;19.77;63.42;101035.03;4170915;28;19928;-66
2023/09/11 04:23:02;;;;;;;;;;;;;;;19.77;63.53;101032.28;4170612;28;20027;-66
2023/09/11 04:25:04;;;;;;;;;;;;;;;19.73;63.31;101029.16;4175863;28;20035;-66
2023/09/11 04:27:06;;;;;;;;;;;;;;;19.71;63.42;101025.78;4170605;28;20028;-65
2023/09/11 04:29:11;;;;;;;;;;;;;;;19.67;63.73;101027.31;4170926;28;20367;-65
2023/09/11 04:31:14;;;;;;;;;;;;;;;19.63;63.83;101021.44;4185667;28;20018;-66
2023/09/11 04:33:16;;;;;;;;;;;;;;;19.60;63.83;101018.34;4169153;28;20015;-67
2023/09/11 04:35:18;;;;;;;;;;;;;;;19.58;64.24;101020.50;4169674;28;20035;-64
2023/09/11 04:37:20;;;;;;;;;;;;;;;19.57;64.10;101027.84;4175721;28;20023;-65
2023/09/11 04:39:23;;;;;;;;;;;;;;;19.56;64.22;101020.72;4167834;28;20044;-65
2023/09/11 04:41:25;;;;;;;;;;;;;;;19.54;64.24;101017.34;4164388;28;19960;-67
2023/09/11 04:43:27;;;;;;;;;;;;;;;19.53;64.11;101021.19;4170826;28;20019;-67
2023/09/11 04:45:31;;;;;;;;;;;;;;;19.54;64.21;101032.97;4168819;28;20023;-67
2023/09/11 04:47:34;;;;;;;;;;;;;;;19.53;63.99;101018.44;4184223;28;20024;-66
2023/09/11 04:49:37;;;;;;;;;;;;;;;19.51;64.23;101019.72;4184265;28;20035;-66
2023/09/11 04:51:38;;;;;;;;;;;;;;;19.49;64.14;101030.09;4168464;28;20027;-65
2023/09/11 04:53:40;;;;;;;;;;;;;;;19.48;64.25;101036.63;4170878;28;19972;-65
2023/09/11 04:55:42;;;;;;;;;;;;;;;19.44;64.41;101033.50;4185472;28;20007;-65
2023/09/11 04:57:44;;;;;;;;;;;;;;;19.40;64.33;101026.81;4167946;28;20020;-64
2023/09/11 04:59:46;;;;;;;;;;;;;;;19.37;64.66;101025.38;4172988;28;20068;-65
2023/09/11 05:01:50;;;;;;;;;;;;;;;19.35;64.68;101024.75;4165952;28;20008;-64
2023/09/11 05:03:52;;;;;;;;;;;;;;;19.32;64.86;101024.38;4167364;28;20019;-65
2023/09/11 05:05:54;;;;;;;;;;;;;;;19.30;64.83;101029.25;4183782;28;20458;-64
2023/09/11 05:07:56;;;;;;;;;;;;;;;19.27;65.02;101023.16;4184201;28;20023;-65
2023/09/11 05:09:59;;;;;;;;;;;;;;;19.26;64.98;101021.50;4183970;28;20087;-65
2023/09/11 05:12:02;;;;;;;;;;;;;;;19.25;65.23;101025.28;4184348;28;20027;-64
2023/09/11 05:14:04;;;;;;;;;;;;;;;19.25;65.26;101024.47;4168087;28;20008;-67
2023/09/11 05:16:06;;;;;;;;;;;;;;;19.26;65.29;101026.97;4169494;28;20024;-65
2023/09/11 05:18:10;;;;;;;;;;;;;;;19.28;65.48;101026.75;4174878;28;20032;-66
2023/09/11 05:20:11;;;;;;;;;;;;;;;19.29;65.26;101020.19;4175889;28;20020;-65
2023/09/11 05:22:14;;;;;;;;;;;;;;;19.29;65.18;101025.66;4170266;28;19929;-65
2023/09/11 05:24:16;;;;;;;;;;;;;;;19.29;65.66;101030.31;4170018;28;20028;-66
2023/09/11 05:26:18;;;;;;;;;;;;;;;19.26;65.44;101023.38;4169928;28;20379;-65
2023/09/11 05:28:20;;;;;;;;;;;;;;;19.26;65.42;101020.63;4170178;28;20031;-65
2023/09/11 05:30:22;;;;;;;;;;;;;;;19.25;65.77;101025.28;4170654;28;20472;-66
2023/09/11 05:32:25;;;;;;;;;;;;;;;19.25;65.68;101018.97;4169040;28;20368;-69
2023/09/11 05:34:28;;;;;;;;;;;;;;;19.27;65.58;101022.31;4170337;28;20012;-65
2023/09/11 05:36:30;;;;;;;;;;;;;;;19.28;65.67;101029.47;4172296;28;20015;-65
2023/09/11 05:38:31;;;;;;;;;;;;;;;19.29;65.60;101031.13;4172845;28;20016;-66
2023/09/11 05:40:33;;;;;;;;;;;;;;;19.29;65.83;101020.19;4172446;28;19953;-65
2023/09/11 05:42:35;;;;;;;;;;;;;;;19.30;65.77;101032.00;4172781;28;20016;-65
2023/09/11 05:44:37;;;;;;;;;;;;;;;19.32;65.61;101029.84;4173270;28;20056;-64
2023/09/11 05:46:40;;;;;;;;;;;;;;;19.34;65.83;101031.31;4172005;28;20016;-66
2023/09/11 05:48:42;;;;;;;;;;;;;;;19.36;65.45;101031.91;4173663;28;20370;-66
2023/09/11 05:50:46;;;;;;;;;;;;;;;19.41;65.79;101026.56;4171524;28;20640;-64
2023/09/11 05:52:50;;;;;;;;;;;;;;;19.46;65.77;101031.38;4172520;28;19995;-65
2023/09/11 05:54:51;;;;;;;;;;;;;;;19.49;65.65;101030.91;4173432;28;20039;-65
2023/09/11 05:56:53;;;;;;;;;;;;;;;19.54;65.67;101032.97;4173339;28;20403;-66
2023/09/11 05:58:55;;;;;;;;;;;;;;;19.58;65.54;101029.53;4172575;28;19933;-63
2023/09/11 06:00:57;;;;;;;;;;;;;;;19.62;65.60;101021.69;4172229;28;20487;-64
2023/09/11 06:02:59;;;;;;;;;;;;;;;19.66;65.54;101033.88;4173230;28;19979;-65
2023/09/11 06:05:00;;;;;;;;;;;;;;;19.70;65.36;101032.34;4172210;28;20020;-66
2023/09/11 06:07:04;;;;;;;;;;;;;;;19.74;65.14;101028.06;4171116;28;20013;-67
2023/09/11 06:09:08;;;;;;;;;;;;;;;19.78;65.14;101036.69;4176770;28;20023;-65
2023/09/11 06:11:10;;;;;;;;;;;;;;;19.81;65.12;101038.97;4169925;28;20024;-65
2023/09/11 06:13:12;;;;;;;;;;;;;;;19.84;65.19;101040.41;4171209;28;20020;-65
2023/09/11 06:15:14;;;;;;;;;;;;;;;19.88;65.26;101034.22;4169861;28;20453;-66
2023/09/11 06:17:16;;;;;;;;;;;;;;;19.90;65.23;101037.56;4172458;28;20329;-65
2023/09/11 06:19:19;;;;;;;;;;;;;;;19.93;65.08;101028.06;4171336;28;20017;-65
2023/09/11 06:21:21;;;;;;;;;;;;;;;19.96;65.11;101039.38;4171973;28;20023;-65
2023/09/11 06:23:23;;;;;;;;;;;;;;;19.99;65.03;101040.84;4172622;28;19976;-66
2023/09/11 06:25:25;;;;;;;;;;;;;;;20.00;64.78;101037.03;4171307;28;20023;-67
2023/09/11 06:27:27;;;;;;;;;;;;;;;20.04;64.67;101037.41;4173154;28;20413;-67
2023/09/11 06:29:28;;;;;;;;;;;;;;;20.07;64.70;101043.25;4170965;28;20551;-64
2023/09/11 06:31:31;;;;;;;;;;;;;;;20.11;64.99;101032.63;4171437;28;19967;-66
2023/09/11 06:33:33;;;;;;;;;;;;;;;20.14;65.01;101033.03;4168368;28;20024;-65
2023/09/11 06:35:35;;;;;;;;;;;;;;;20.19;64.77;101031.47;4170066;28;20622;-65
2023/09/11 06:37:37;;;;;;;;;;;;;;;20.25;64.53;101034.13;4170141;28;20019;-65
2023/09/11 06:39:40;;;;;;;;;;;;;;;20.29;64.57;101029.84;4170899;28;20028;-65
2023/09/11 06:41:42;;;;;;;;;;;;;;;20.34;64.22;101029.13;4172325;28;20020;-65
2023/09/11 06:43:46;;;;;;;;;;;;;;;20.38;64.30;101024.03;4172756;28;19960;-65
2023/09/11 06:45:50;;;;;;;;;;;;;;;20.43;64.11;101026.91;4172940;28;20023;-65
2023/09/11 06:47:52;;;;;;;;;;;;;;;20.45;64.38;101025.56;4170725;28;20025;-65
2023/09/11 06:49:54;;;;;;;;;;;;;;;20.50;64.32;101022.13;4171953;28;20027;-65
2023/09/11 06:51:56;;;;;;;;;;;;;;;20.54;64.06;101028.81;4171901;28;20454;-65
2023/09/11 06:54:03;;;;;;;;;;;;;;;20.58;64.29;101030.03;4171669;28;20031;-66
2023/09/11 06:56:07;;;;;;;;;;;;;;;20.63;64.19;101026.56;4171864;28;20016;-65
2023/09/11 06:58:09;;;;;;;;;;;;;;;20.67;63.84;101031.38;4171847;28;20027;-64
2023/09/11 07:00:12;;;;;;;;;;;;;;;20.72;64.01;101024.31;4171648;28;20049;-65
2023/09/11 07:02:14;;;;;;;;;;;;;;;20.76;63.56;101025.53;4171692;28;20387;-64
2023/09/11 07:04:17;;;;;;;;;;;;;;;20.79;63.50;101031.38;4172095;28;20379;-65
2023/09/11 07:06:18;;;;;;;;;;;;;;;20.82;63.43;101022.66;4173212;28;20650;-66
2023/09/11 07:08:20;;;;;;;;;;;;;;;20.86;63.25;101021.13;4170380;28;19933;-65
2023/09/11 07:10:22;;;;;;;;;;;;;;;20.92;63.33;101026.72;4172221;28;20036;-65
2023/09/11 07:12:25;;;;;;;;;;;;;;;20.95;62.98;101020.75;4171765;28;20370;-65
2023/09/11 07:14:28;;;;;;;;;;;;;;;21.00;62.76;101020.84;4171915;28;20362;-65
2023/09/11 07:16:30;;;;;;;;;;;;;;;21.04;62.17;101019.31;4171679;28;20032;-65
2023/09/11 07:18:32;;;;;;;;;;;;;;;21.09;62.41;101015.84;4170782;28;20024;-65
2023/09/11 07:20:34;;;;;;;;;;;;;;;21.14;62.30;101013.22;4170862;28;20359;-65
2023/09/11 07:22:36;;;;;;;;;;;;;;;21.19;62.40;101018.81;4171353;28;20011;-65
2023/09/11 07:24:38;;;;;;;;;;;;;;;21.24;62.15;101018.94;4171249;28;19940;-64
2023/09/11 07:26:40;;;;;;;;;;;;;;;21.29;61.83;101019.03;4171865;28;20013;-64
2023/09/11 07:28:54;;;;;;;;;;;;;;;21.33;62.14;101023.00;4171584;28;20318;-65
2023/09/11 07:30:56;;;;;;;;;;;;;;;21.40;62.42;101022.84;4171727;28;20024;-65
2023/09/11 07:32:58;;;;;;;;;;;;;;;21.45;62.55;101022.13;4186501;28;20426;-65
2023/09/11 07:34:59;;;;;;;;;;;;;;;21.50;62.44;101027.75;4171499;28;20011;-66
2023/09/11 07:37:01;;;;;;;;;;;;;;;21.56;62.16;101021.28;4169983;28;20016;-68
2023/09/11 07:39:03;;;;;;;;;;;;;;;21.60;62.00;101030.72;4171362;28;20021;-66
2023/09/11 07:41:04;;;;;;;;;;;;;;;21.66;61.96;101028.88;4171499;28;20910;-65
2023/09/11 07:43:06;;;;;;;;;;;;;;;21.70;61.73;101019.09;4170653;28;19975;-65
2023/09/11 07:45:10;;;;;;;;;;;;;;;21.76;61.49;101023.59;4170832;28;19940;-65
2023/09/11 07:47:13;;;;;;;;;;;;;;;21.82;61.45;101019.03;4171176;28;20024;-65
2023/09/11 07:49:15;;;;;;;;;;;;;;;21.86;61.32;101015.53;4170878;28;20031;-65
2023/09/11 07:51:17;;;;;;;;;;;;;;;21.91;60.88;101018.41;4170122;28;20031;-65
2023/09/11 07:53:18;;;;;;;;;;;;;;;21.98;60.71;101022.94;4169995;28;20446;-65
2023/09/11 07:55:20;;;;;;;;;;;;;;;22.03;60.61;101020.25;4171204;28;20032;-65
2023/09/11 07:57:22;;;;;;;;;;;;;;;22.07;60.64;101014.03;4170867;28;20012;-67
2023/09/11 07:59:24;;;;;;;;;;;;;;;22.13;60.58;101017.69;4170134;28;20019;-66
2023/09/11 08:01:27;;;;;;;;;;;;;;;22.20;60.27;101017.53;4170825;28;20024;-67
2023/09/11 08:03:31;;;;;;;;;;;;;;;22.23;60.18;101011.53;4170580;28;20055;-64
2023/09/11 08:05:33;;;;;;;;;;;;;;;22.29;60.15;101010.56;4170495;28;19951;-64
2023/09/11 08:07:35;;;;;;;;;;;;;;;22.34;59.99;101007.09;4170223;28;20016;-64
2023/09/11 08:09:37;;;;;;;;;;;;;;;22.39;60.06;101009.91;4170021;28;20012;-64
2023/09/11 08:11:39;;;;;;;;;;;;;;;22.45;59.54;101006.16;4170236;28;20020;-65
2023/09/11 08:13:41;;;;;;;;;;;;;;;22.49;59.54;101008.19;4170444;28;20027;-65
2023/09/11 08:15:43;;;;;;;;;;;;;;;22.55;59.40;101011.81;4170478;28;20051;-67
2023/09/11 08:17:47;;;;;;;;;;;;;;;22.59;59.17;100995.66;4170861;28;20021;-65
2023/09/11 08:19:49;;;;;;;;;;;;;;;22.64;58.89;101004.81;4170596;28;20034;-64
2023/09/11 08:21:54;;;;;;;;;;;;;;;22.70;59.05;101007.66;4185324;28;20032;-65
2023/09/11 08:23:57;;;;;;;;;;;;;;;22.74;58.86;101006.06;4170372;28;20020;-65
2023/09/11 08:25:59;;;;;;;;;;;;;;;22.80;58.82;101007.81;4170970;28;19971;-65
2023/09/11 08:28:02;;;;;;;;;;;;;;;22.83;58.61;101001.78;4171016;28;20039;-65
2023/09/11 08:30:04;;;;;;;;;;;;;;;22.89;58.41;101005.47;4170018;28;20019;-65
2023/09/11 08:32:07;;;;;;;;;;;;;;;22.94;58.40;101011.88;4171028;28;20031;-66
2023/09/11 08:34:10;;;;;;;;;;;;;;;22.99;58.06;101008.34;4169701;28;20024;-64
2023/09/11 08:36:12;;;;;;;;;;;;;;;23.02;58.19;101005.94;4170289;28;20561;-64
2023/09/11 08:38:14;;;;;;;;;;;;;;;23.10;57.97;101003.84;4170085;28;20452;-65
2023/09/11 08:40:16;;;;;;;;;;;;;;;23.14;57.73;101000.34;4169667;28;20027;-64
2023/09/11 08:42:18;;;;;;;;;;;;;;;23.20;57.80;100996.56;4169792;28;20027;-64
2023/09/11 08:44:20;;;;;;;;;;;;;;;23.26;57.50;100994.72;4169740;28;21679;-64
2023/09/11 08:46:22;;;;;;;;;;;;;;;23.33;57.33;101002.78;4170542;28;19968;-65
2023/09/11 08:48:26;;;;;;;;;;;;;;;23.39;57.28;101001.78;4169357;28;20020;-64
2023/09/11 08:50:31;;;;;;;;;;;;;;;23.45;56.89;100999.88;4169679;28;20028;-65
2023/09/11 08:52:33;;;;;;;;;;;;;;;23.51;56.84;101007.13;4170082;28;20023;-64
2023/09/11 08:54:36;;;;;;;;;;;;;;;23.54;56.75;101004.72;4169732;28;20441;-65
2023/09/11 08:56:38;;;;;;;;;;;;;;;23.58;56.51;101005.84;4170414;28;20354;-66
2023/09/11 08:58:40;;;;;;;;;;;;;;;23.63;56.53;100998.75;4170555;28;20027;-64
2023/09/11 09:00:42;;;;;;;;;;;;;;;23.65;56.20;101000.16;4169661;28;20102;-65
2023/09/11 09:02:44;;;;;;;;;;;;;;;23.69;56.32;101000.47;4170245;28;20024;-65
2023/09/11 09:04:46;;;;;;;;;;;;;;;23.72;56.41;100992.50;4167672;28;19999;-66
2023/09/11 09:06:50;;;;;;;;;;;;;;;23.78;55.95;100992.53;4170146;28;19929;-64
2023/09/11 09:08:52;;;;;;;;;;;;;;;23.80;56.08;100996.72;4170207;28;20016;-64
2023/09/11 09:10:54;;;;;;;;;;;;;;;23.84;56.33;100994.28;4170598;28;20012;-65
2023/09/11 09:12:56;;;;;;;;;;;;;;;23.87;55.68;101000.16;4172679;28;20040;-64
2023/09/11 09:14:58;;;;;;;;;;;;;;;23.92;55.71;100993.84;4173000;28;20027;-64
2023/09/11 09:17:00;;;;;;;;;;;;;;;23.96;55.59;100988.63;4172348;28;20023;-65
2023/09/11 09:19:02;;;;;;;;;;;;;;;23.98;55.53;100992.81;4172186;28;20028;-64
2023/09/11 09:21:05;;;;;;;;;;;;;;;24.01;55.54;100992.28;4173023;28;20028;-64
2023/09/11 09:23:08;;;;;;;;;;;;;;;24.04;55.53;100988.16;4173030;28;20514;-64
2023/09/11 09:25:10;;;;;;;;;;;;;;;24.07;55.38;100985.69;4172277;28;20019;-64
2023/09/11 09:27:12;;;;;;;;;;;;;;;24.10;55.04;100987.13;4173272;28;19932;-64
2023/09/11 09:29:16;;;;;;;;;;;;;;;24.14;55.31;100984.66;4172694;28;20016;-65
2023/09/11 09:31:24;;;;;;;;;;;;;;;24.16;55.20;100991.59;4172832;28;20011;-64
2023/09/11 09:33:25;;;;;;;;;;;;;;;24.18;55.13;100986.63;4172750;28;20399;-65
2023/09/11 09:35:30;;;;;;;;;;;;;;;24.21;54.90;100985.28;4172605;28;20015;-65
2023/09/11 09:37:31;;;;;;;;;;;;;;;24.23;54.72;100972.91;4172939;28;20036;-65
2023/09/11 09:39:38;;;;;;;;;;;;;;;24.25;54.51;100976.22;4172967;28;20011;-65
2023/09/11 09:41:40;;;;;;;;;;;;;;;24.28;54.58;100972.13;4172346;28;20044;-65
2023/09/11 09:43:42;;;;;;;;;;;;;;;24.29;54.67;100971.00;4172656;28;20016;-63
2023/09/11 09:45:44;;;;;;;;;;;;;;;24.31;54.32;100960.53;4172258;28;20016;-65
2023/09/11 09:47:46;;;;;;;;;;;;;;;24.32;54.28;100964.13;4172796;28;20613;-65
2023/09/11 09:49:49;;;;;;;;;;;;;;;24.34;54.29;100962.78;4175755;28;20016;-66
2023/09/11 09:51:52;;;;;;;;;;;;;;;24.36;54.11;100957.81;4172442;28;20023;-65
2023/09/11 09:53:54;;;;;;;;;;;;;;;24.38;54.37;100958.38;4172617;28;20022;-64
2023/09/11 09:55:58;;;;;;;;;;;;;;;24.40;54.33;100953.41;4172248;28;20422;-65
2023/09/11 09:58:00;;;;;;;;;;;;;;;24.42;54.10;100950.38;4171785;28;20031;-63
2023/09/11 10:00:03;;;;;;;;;;;;;;;24.43;54.26;100950.13;4172762;28;20027;-66
2023/09/11 10:02:06;;;;;;;;;;;;;;;24.46;53.93;100951.53;4172750;28;20015;-66
2023/09/11 10:04:14;;;;;;;;;;;;;;;24.46;54.12;100941.31;4187399;28;20012;-65
2023/09/11 10:06:17;;;;;;;;;;;;;;;24.49;53.99;100942.72;4172953;28;20402;-64
2023/09/11 10:08:19;;;;;;;;;;;;;;;24.51;53.89;100942.47;4172248;28;20012;-64
2023/09/11 10:10:23;;;;;;;;;;;;;;;24.52;53.96;100936.66;4172116;28;20375;-66
2023/09/11 10:12:26;;;;;;;;;;;;;;;24.54;53.71;100936.41;4171817;28;20876;-65
2023/09/11 10:14:28;;;;;;;;;;;;;;;24.55;53.46;100930.63;4172113;28;20035;-65
2023/09/11 10:16:31;;;;;;;;;;;;;;;24.56;53.27;100929.53;4172509;28;20040;-65
2023/09/11 10:18:33;;;;;;;;;;;;;;;24.59;53.74;100928.19;4171865;28;20454;-65
2023/09/11 10:20:35;;;;;;;;;;;;;;;24.60;53.34;100927.09;4172110;28;20011;-65
2023/09/11 10:22:37;;;;;;;;;;;;;;;24.62;53.37;100927.66;4172034;28;20032;-65
2023/09/11 10:24:39;;;;;;;;;;;;;;;24.64;53.03;100920.78;4172197;28;20015;-65
2023/09/11 10:26:44;;;;;;;;;;;;;;;24.66;53.16;100920.50;4171908;28;20015;-65
2023/09/11 10:28:50;;;;;;;;;;;;;;;24.68;53.05;100910.00;4172135;28;19929;-66